Terminal Aerodrome Forecast
Issued by NWS

Home | Current Version | Previous Version | Text Only | Print | Product List | Glossary On
Versions: 1 2 3 4 5 6 7 8 9 10 11 12 13 14 15 16 17 18 19 20 21 22 23 24
000
FTUS43 KDLH 182135 AAA
TAFHYR
TAF AMD
KHYR 182135Z 1822/1918 20010KT P6SM SKC
     FM190000 20004KT P6SM SKC
     FM190600 18002KT 6SM BR SKC
     FM191400 18005KT P6SM SCT010=

USA.gov is the U.S. government's official web portal to all federal, state and local government web resources and services.